sensor_id;sensor_type;location;lat;lon;timestamp;P1;durP1;ratioP1;P2;durP2;ratioP2
9294;SDS011;4686;44.496;11.324;2023-02-11T00:00:59;40.77;;;28.40;;
9294;SDS011;4686;44.496;11.324;2023-02-11T00:03:26;45.07;;;30.67;;
9294;SDS011;4686;44.496;11.324;2023-02-11T00:05:57;39.17;;;29.30;;
9294;SDS011;4686;44.496;11.324;2023-02-11T00:08:26;38.00;;;27.17;;
9294;SDS011;4686;44.496;11.324;2023-02-11T00:10:54;43.27;;;29.13;;
9294;SDS011;4686;44.496;11.324;2023-02-11T00:13:22;38.63;;;27.60;;
9294;SDS011;4686;44.496;11.324;2023-02-11T00:15:50;40.97;;;28.67;;
9294;SDS011;4686;44.496;11.324;2023-02-11T00:18:17;42.23;;;28.57;;
9294;SDS011;4686;44.496;11.324;2023-02-11T00:20:44;46.70;;;28.40;;
9294;SDS011;4686;44.496;11.324;2023-02-11T00:23:12;40.87;;;30.37;;
9294;SDS011;4686;44.496;11.324;2023-02-11T00:25:41;40.87;;;27.97;;
9294;SDS011;4686;44.496;11.324;2023-02-11T00:28:08;40.97;;;29.03;;
9294;SDS011;4686;44.496;11.324;2023-02-11T00:30:36;49.40;;;31.73;;
9294;SDS011;4686;44.496;11.324;2023-02-11T00:33:03;47.50;;;30.60;;
9294;SDS011;4686;44.496;11.324;2023-02-11T00:35:30;47.40;;;27.50;;
9294;SDS011;4686;44.496;11.324;2023-02-11T00:37:58;37.67;;;27.43;;
9294;SDS011;4686;44.496;11.324;2023-02-11T00:40:26;54.63;;;31.17;;
9294;SDS011;4686;44.496;11.324;2023-02-11T00:42:55;45.00;;;29.90;;
9294;SDS011;4686;44.496;11.324;2023-02-11T00:45:22;48.30;;;30.13;;
9294;SDS011;4686;44.496;11.324;2023-02-11T00:47:49;40.97;;;27.53;;
9294;SDS011;4686;44.496;11.324;2023-02-11T00:53:02;38.57;;;28.73;;
9294;SDS011;4686;44.496;11.324;2023-02-11T00:55:30;38.27;;;27.63;;
9294;SDS011;4686;44.496;11.324;2023-02-11T00:57:58;43.70;;;26.40;;
9294;SDS011;4686;44.496;11.324;2023-02-11T01:00:26;38.47;;;27.93;;
9294;SDS011;4686;44.496;11.324;2023-02-11T01:02:53;39.17;;;26.73;;
9294;SDS011;4686;44.496;11.324;2023-02-11T01:05:21;40.23;;;27.97;;
9294;SDS011;4686;44.496;11.324;2023-02-11T01:07:48;41.70;;;26.67;;
9294;SDS011;4686;44.496;11.324;2023-02-11T01:10:16;41.87;;;28.37;;
9294;SDS011;4686;44.496;11.324;2023-02-11T01:12:43;37.37;;;27.70;;
9294;SDS011;4686;44.496;11.324;2023-02-11T01:15:12;38.90;;;28.37;;
9294;SDS011;4686;44.496;11.324;2023-02-11T01:17:40;38.77;;;27.30;;
9294;SDS011;4686;44.496;11.324;2023-02-11T01:20:10;41.07;;;27.80;;
9294;SDS011;4686;44.496;11.324;2023-02-11T01:22:37;38.83;;;27.63;;
9294;SDS011;4686;44.496;11.324;2023-02-11T01:25:05;35.60;;;27.00;;
9294;SDS011;4686;44.496;11.324;2023-02-11T01:27:32;45.37;;;28.33;;
9294;SDS011;4686;44.496;11.324;2023-02-11T01:30:00;39.90;;;29.60;;
9294;SDS011;4686;44.496;11.324;2023-02-11T01:32:29;38.13;;;28.10;;
9294;SDS011;4686;44.496;11.324;2023-02-11T01:34:57;38.30;;;27.73;;
9294;SDS011;4686;44.496;11.324;2023-02-11T01:37:24;39.93;;;28.20;;
9294;SDS011;4686;44.496;11.324;2023-02-11T01:39:52;37.17;;;28.30;;
9294;SDS011;4686;44.496;11.324;2023-02-11T01:42:20;39.10;;;24.90;;
9294;SDS011;4686;44.496;11.324;2023-02-11T01:44:48;40.23;;;27.03;;
9294;SDS011;4686;44.496;11.324;2023-02-11T01:47:16;36.50;;;27.00;;
9294;SDS011;4686;44.496;11.324;2023-02-11T01:49:46;47.30;;;27.80;;
9294;SDS011;4686;44.496;11.324;2023-02-11T01:52:14;37.10;;;27.10;;
9294;SDS011;4686;44.496;11.324;2023-02-11T01:54:44;39.77;;;26.90;;
9294;SDS011;4686;44.496;11.324;2023-02-11T01:57:31;37.43;;;26.30;;
9294;SDS011;4686;44.496;11.324;2023-02-11T02:00:05;87.40;;;30.07;;
9294;SDS011;4686;44.496;11.324;2023-02-11T02:02:36;36.03;;;25.10;;
9294;SDS011;4686;44.496;11.324;2023-02-11T02:05:08;40.27;;;27.90;;
9294;SDS011;4686;44.496;11.324;2023-02-11T02:07:37;32.80;;;25.60;;
9294;SDS011;4686;44.496;11.324;2023-02-11T02:10:08;38.27;;;25.83;;
9294;SDS011;4686;44.496;11.324;2023-02-11T02:12:37;65.03;;;28.47;;
9294;SDS011;4686;44.496;11.324;2023-02-11T02:15:18;59.90;;;26.90;;
9294;SDS011;4686;44.496;11.324;2023-02-11T02:17:47;50.07;;;26.37;;
9294;SDS011;4686;44.496;11.324;2023-02-11T02:20:33;45.83;;;25.53;;
9294;SDS011;4686;44.496;11.324;2023-02-11T02:23:17;34.93;;;26.43;;
9294;SDS011;4686;44.496;11.324;2023-02-11T02:28:37;33.17;;;23.87;;
9294;SDS011;4686;44.496;11.324;2023-02-11T02:31:19;39.83;;;27.20;;
9294;SDS011;4686;44.496;11.324;2023-02-11T02:33:53;34.87;;;25.40;;
9294;SDS011;4686;44.496;11.324;2023-02-11T02:36:21;43.57;;;26.77;;
9294;SDS011;4686;44.496;11.324;2023-02-11T02:38:51;34.63;;;24.73;;
9294;SDS011;4686;44.496;11.324;2023-02-11T02:41:20;34.53;;;23.90;;
9294;SDS011;4686;44.496;11.324;2023-02-11T02:43:49;33.97;;;25.30;;
9294;SDS011;4686;44.496;11.324;2023-02-11T02:46:18;37.37;;;25.07;;
9294;SDS011;4686;44.496;11.324;2023-02-11T02:48:46;35.57;;;25.90;;
9294;SDS011;4686;44.496;11.324;2023-02-11T02:51:21;36.70;;;25.30;;
9294;SDS011;4686;44.496;11.324;2023-02-11T02:53:57;36.17;;;24.23;;
9294;SDS011;4686;44.496;11.324;2023-02-11T02:56:29;36.50;;;24.10;;
9294;SDS011;4686;44.496;11.324;2023-02-11T02:59:05;37.80;;;25.20;;
9294;SDS011;4686;44.496;11.324;2023-02-11T03:01:38;33.50;;;23.40;;
9294;SDS011;4686;44.496;11.324;2023-02-11T03:04:10;29.27;;;22.53;;
9294;SDS011;4686;44.496;11.324;2023-02-11T03:06:43;33.73;;;23.90;;
9294;SDS011;4686;44.496;11.324;2023-02-11T03:09:13;34.10;;;24.50;;
9294;SDS011;4686;44.496;11.324;2023-02-11T03:11:42;32.37;;;24.97;;
9294;SDS011;4686;44.496;11.324;2023-02-11T03:14:10;33.40;;;22.33;;
9294;SDS011;4686;44.496;11.324;2023-02-11T03:16:38;31.57;;;23.43;;
9294;SDS011;4686;44.496;11.324;2023-02-11T03:19:07;35.00;;;24.00;;
9294;SDS011;4686;44.496;11.324;2023-02-11T03:21:36;30.57;;;23.23;;
9294;SDS011;4686;44.496;11.324;2023-02-11T03:24:06;28.90;;;22.83;;
9294;SDS011;4686;44.496;11.324;2023-02-11T03:26:35;28.53;;;22.40;;
9294;SDS011;4686;44.496;11.324;2023-02-11T03:29:05;26.57;;;21.43;;
9294;SDS011;4686;44.496;11.324;2023-02-11T03:31:36;31.70;;;23.17;;
9294;SDS011;4686;44.496;11.324;2023-02-11T03:34:05;33.17;;;21.93;;
9294;SDS011;4686;44.496;11.324;2023-02-11T03:36:35;31.13;;;22.03;;
9294;SDS011;4686;44.496;11.324;2023-02-11T03:39:06;27.70;;;22.50;;
9294;SDS011;4686;44.496;11.324;2023-02-11T03:41:35;30.57;;;21.73;;
9294;SDS011;4686;44.496;11.324;2023-02-11T03:44:05;32.77;;;22.27;;
9294;SDS011;4686;44.496;11.324;2023-02-11T03:46:35;32.03;;;22.80;;
9294;SDS011;4686;44.496;11.324;2023-02-11T03:49:03;32.87;;;22.27;;
9294;SDS011;4686;44.496;11.324;2023-02-11T03:51:32;34.10;;;22.37;;
9294;SDS011;4686;44.496;11.324;2023-02-11T03:54:01;32.20;;;22.57;;
9294;SDS011;4686;44.496;11.324;2023-02-11T03:56:31;37.83;;;23.40;;
9294;SDS011;4686;44.496;11.324;2023-02-11T03:58:59;30.23;;;22.23;;
9294;SDS011;4686;44.496;11.324;2023-02-11T04:01:26;34.07;;;23.17;;
9294;SDS011;4686;44.496;11.324;2023-02-11T04:03:53;36.47;;;22.10;;
9294;SDS011;4686;44.496;11.324;2023-02-11T04:06:20;29.30;;;22.00;;
9294;SDS011;4686;44.496;11.324;2023-02-11T04:08:48;32.27;;;23.97;;
9294;SDS011;4686;44.496;11.324;2023-02-11T04:11:15;31.80;;;22.07;;
9294;SDS011;4686;44.496;11.324;2023-02-11T04:13:44;29.23;;;22.50;;
9294;SDS011;4686;44.496;11.324;2023-02-11T04:16:11;34.43;;;24.03;;
9294;SDS011;4686;44.496;11.324;2023-02-11T04:18:38;28.40;;;21.63;;
9294;SDS011;4686;44.496;11.324;2023-02-11T04:21:05;28.93;;;21.70;;
9294;SDS011;4686;44.496;11.324;2023-02-11T04:23:34;26.80;;;21.47;;
9294;SDS011;4686;44.496;11.324;2023-02-11T04:26:02;30.47;;;20.80;;
9294;SDS011;4686;44.496;11.324;2023-02-11T04:28:30;30.90;;;22.00;;
9294;SDS011;4686;44.496;11.324;2023-02-11T04:30:59;30.37;;;21.67;;
9294;SDS011;4686;44.496;11.324;2023-02-11T04:33:26;26.30;;;21.00;;
9294;SDS011;4686;44.496;11.324;2023-02-11T04:35:53;30.43;;;22.57;;
9294;SDS011;4686;44.496;11.324;2023-02-11T04:38:21;29.67;;;21.80;;
9294;SDS011;4686;44.496;11.324;2023-02-11T04:40:49;33.17;;;23.43;;
9294;SDS011;4686;44.496;11.324;2023-02-11T04:43:16;27.97;;;21.80;;
9294;SDS011;4686;44.496;11.324;2023-02-11T04:45:45;31.40;;;22.03;;
9294;SDS011;4686;44.496;11.324;2023-02-11T04:48:14;29.10;;;21.97;;
9294;SDS011;4686;44.496;11.324;2023-02-11T04:50:42;29.80;;;21.47;;
9294;SDS011;4686;44.496;11.324;2023-02-11T04:53:09;30.67;;;21.73;;
9294;SDS011;4686;44.496;11.324;2023-02-11T04:55:36;32.43;;;22.40;;
9294;SDS011;4686;44.496;11.324;2023-02-11T04:58:04;27.83;;;20.43;;
9294;SDS011;4686;44.496;11.324;2023-02-11T05:00:31;27.17;;;20.13;;
9294;SDS011;4686;44.496;11.324;2023-02-11T05:02:58;30.43;;;22.70;;
9294;SDS011;4686;44.496;11.324;2023-02-11T05:05:29;26.90;;;20.40;;
9294;SDS011;4686;44.496;11.324;2023-02-11T05:07:57;28.60;;;20.40;;
9294;SDS011;4686;44.496;11.324;2023-02-11T05:10:24;26.23;;;21.43;;
9294;SDS011;4686;44.496;11.324;2023-02-11T05:12:53;31.87;;;21.90;;
9294;SDS011;4686;44.496;11.324;2023-02-11T05:15:20;26.17;;;20.70;;
9294;SDS011;4686;44.496;11.324;2023-02-11T05:17:48;29.17;;;21.50;;
9294;SDS011;4686;44.496;11.324;2023-02-11T05:20:16;26.87;;;20.83;;
9294;SDS011;4686;44.496;11.324;2023-02-11T05:22:44;27.40;;;21.00;;
9294;SDS011;4686;44.496;11.324;2023-02-11T05:25:12;27.50;;;19.77;;
9294;SDS011;4686;44.496;11.324;2023-02-11T05:27:39;28.33;;;20.20;;
9294;SDS011;4686;44.496;11.324;2023-02-11T05:30:07;27.87;;;21.03;;
9294;SDS011;4686;44.496;11.324;2023-02-11T05:32:35;24.53;;;19.40;;
9294;SDS011;4686;44.496;11.324;2023-02-11T05:35:02;28.13;;;19.90;;
9294;SDS011;4686;44.496;11.324;2023-02-11T05:37:29;28.50;;;22.17;;
9294;SDS011;4686;44.496;11.324;2023-02-11T05:39:58;26.10;;;20.67;;
9294;SDS011;4686;44.496;11.324;2023-02-11T05:42:25;24.20;;;20.50;;
9294;SDS011;4686;44.496;11.324;2023-02-11T05:44:53;25.13;;;19.73;;
9294;SDS011;4686;44.496;11.324;2023-02-11T05:47:20;24.23;;;19.97;;
9294;SDS011;4686;44.496;11.324;2023-02-11T05:49:49;27.00;;;20.57;;
9294;SDS011;4686;44.496;11.324;2023-02-11T05:52:17;27.30;;;19.23;;
9294;SDS011;4686;44.496;11.324;2023-02-11T05:54:45;23.83;;;18.57;;
9294;SDS011;4686;44.496;11.324;2023-02-11T05:57:13;22.40;;;18.53;;
9294;SDS011;4686;44.496;11.324;2023-02-11T05:59:41;25.50;;;20.60;;
9294;SDS011;4686;44.496;11.324;2023-02-11T06:02:09;24.90;;;19.97;;
9294;SDS011;4686;44.496;11.324;2023-02-11T06:04:38;27.00;;;19.77;;
9294;SDS011;4686;44.496;11.324;2023-02-11T06:07:05;24.23;;;18.33;;
9294;SDS011;4686;44.496;11.324;2023-02-11T06:09:33;27.67;;;19.97;;
9294;SDS011;4686;44.496;11.324;2023-02-11T06:12:00;25.73;;;19.50;;
9294;SDS011;4686;44.496;11.324;2023-02-11T06:14:28;29.17;;;18.03;;
9294;SDS011;4686;44.496;11.324;2023-02-11T06:16:58;24.37;;;18.77;;
9294;SDS011;4686;44.496;11.324;2023-02-11T06:19:25;26.00;;;19.90;;
9294;SDS011;4686;44.496;11.324;2023-02-11T06:21:52;21.10;;;18.47;;
9294;SDS011;4686;44.496;11.324;2023-02-11T06:24:19;26.30;;;18.50;;
9294;SDS011;4686;44.496;11.324;2023-02-11T06:26:47;26.83;;;18.90;;
9294;SDS011;4686;44.496;11.324;2023-02-11T06:29:14;25.60;;;20.77;;
9294;SDS011;4686;44.496;11.324;2023-02-11T06:31:43;25.90;;;20.30;;
9294;SDS011;4686;44.496;11.324;2023-02-11T06:34:10;24.80;;;18.80;;
9294;SDS011;4686;44.496;11.324;2023-02-11T06:36:37;24.50;;;19.20;;
9294;SDS011;4686;44.496;11.324;2023-02-11T06:39:05;25.30;;;19.07;;
9294;SDS011;4686;44.496;11.324;2023-02-11T06:41:32;23.00;;;18.77;;
9294;SDS011;4686;44.496;11.324;2023-02-11T06:44:00;26.37;;;20.00;;
9294;SDS011;4686;44.496;11.324;2023-02-11T06:46:27;28.27;;;20.43;;
9294;SDS011;4686;44.496;11.324;2023-02-11T06:48:55;24.03;;;18.40;;
9294;SDS011;4686;44.496;11.324;2023-02-11T06:51:23;26.57;;;19.00;;
9294;SDS011;4686;44.496;11.324;2023-02-11T06:53:50;30.53;;;19.00;;
9294;SDS011;4686;44.496;11.324;2023-02-11T06:56:18;26.23;;;18.67;;
9294;SDS011;4686;44.496;11.324;2023-02-11T06:58:46;27.83;;;19.90;;
9294;SDS011;4686;44.496;11.324;2023-02-11T07:01:14;25.77;;;19.37;;
9294;SDS011;4686;44.496;11.324;2023-02-11T07:03:42;23.73;;;18.43;;
9294;SDS011;4686;44.496;11.324;2023-02-11T07:06:12;23.03;;;18.90;;
9294;SDS011;4686;44.496;11.324;2023-02-11T07:11:27;26.63;;;19.20;;
9294;SDS011;4686;44.496;11.324;2023-02-11T07:13:55;27.50;;;19.87;;
9294;SDS011;4686;44.496;11.324;2023-02-11T07:16:22;21.90;;;18.00;;
9294;SDS011;4686;44.496;11.324;2023-02-11T07:18:49;22.13;;;18.30;;
9294;SDS011;4686;44.496;11.324;2023-02-11T07:21:18;24.37;;;18.80;;
9294;SDS011;4686;44.496;11.324;2023-02-11T07:23:46;25.73;;;20.00;;
9294;SDS011;4686;44.496;11.324;2023-02-11T07:26:14;24.30;;;19.20;;
9294;SDS011;4686;44.496;11.324;2023-02-11T07:28:41;22.23;;;18.50;;
9294;SDS011;4686;44.496;11.324;2023-02-11T07:31:10;28.07;;;18.27;;
9294;SDS011;4686;44.496;11.324;2023-02-11T07:33:37;21.27;;;17.43;;
9294;SDS011;4686;44.496;11.324;2023-02-11T07:36:05;22.40;;;17.00;;
9294;SDS011;4686;44.496;11.324;2023-02-11T07:38:34;31.47;;;19.93;;
9294;SDS011;4686;44.496;11.324;2023-02-11T07:41:03;22.97;;;19.40;;
9294;SDS011;4686;44.496;11.324;2023-02-11T07:43:32;25.80;;;18.60;;
9294;SDS011;4686;44.496;11.324;2023-02-11T07:46:02;22.97;;;18.10;;
9294;SDS011;4686;44.496;11.324;2023-02-11T07:48:29;23.30;;;17.80;;
9294;SDS011;4686;44.496;11.324;2023-02-11T07:51:03;22.33;;;18.33;;
9294;SDS011;4686;44.496;11.324;2023-02-11T07:53:30;23.73;;;18.20;;
9294;SDS011;4686;44.496;11.324;2023-02-11T07:55:59;23.67;;;17.70;;
9294;SDS011;4686;44.496;11.324;2023-02-11T07:58:26;20.27;;;18.10;;
9294;SDS011;4686;44.496;11.324;2023-02-11T08:00:53;25.87;;;19.10;;
9294;SDS011;4686;44.496;11.324;2023-02-11T08:03:21;23.33;;;17.57;;
9294;SDS011;4686;44.496;11.324;2023-02-11T08:05:48;21.77;;;17.90;;
9294;SDS011;4686;44.496;11.324;2023-02-11T08:08:15;21.80;;;16.70;;
9294;SDS011;4686;44.496;11.324;2023-02-11T08:10:42;21.53;;;17.33;;
9294;SDS011;4686;44.496;11.324;2023-02-11T08:13:11;22.77;;;17.50;;
9294;SDS011;4686;44.496;11.324;2023-02-11T08:15:38;21.60;;;16.07;;
9294;SDS011;4686;44.496;11.324;2023-02-11T08:18:06;26.13;;;16.80;;
9294;SDS011;4686;44.496;11.324;2023-02-11T08:20:33;20.27;;;15.87;;
9294;SDS011;4686;44.496;11.324;2023-02-11T08:23:00;17.93;;;15.80;;
9294;SDS011;4686;44.496;11.324;2023-02-11T08:25:27;21.10;;;17.83;;
9294;SDS011;4686;44.496;11.324;2023-02-11T08:27:55;20.77;;;16.97;;
9294;SDS011;4686;44.496;11.324;2023-02-11T08:30:23;19.30;;;15.73;;
9294;SDS011;4686;44.496;11.324;2023-02-11T08:32:50;20.93;;;16.87;;
9294;SDS011;4686;44.496;11.324;2023-02-11T08:35:18;19.43;;;15.40;;
9294;SDS011;4686;44.496;11.324;2023-02-11T08:37:45;19.20;;;15.73;;
9294;SDS011;4686;44.496;11.324;2023-02-11T08:40:12;18.73;;;16.00;;
9294;SDS011;4686;44.496;11.324;2023-02-11T08:42:39;18.13;;;16.13;;
9294;SDS011;4686;44.496;11.324;2023-02-11T08:45:07;21.83;;;16.87;;
9294;SDS011;4686;44.496;11.324;2023-02-11T08:47:36;19.87;;;16.67;;
9294;SDS011;4686;44.496;11.324;2023-02-11T08:50:03;21.40;;;16.33;;
9294;SDS011;4686;44.496;11.324;2023-02-11T08:52:31;25.90;;;19.03;;
9294;SDS011;4686;44.496;11.324;2023-02-11T08:54:58;28.20;;;21.70;;
9294;SDS011;4686;44.496;11.324;2023-02-11T08:57:25;33.23;;;20.90;;
9294;SDS011;4686;44.496;11.324;2023-02-11T08:59:53;30.23;;;20.00;;
9294;SDS011;4686;44.496;11.324;2023-02-11T09:02:20;28.83;;;21.00;;
9294;SDS011;4686;44.496;11.324;2023-02-11T09:04:49;29.93;;;20.47;;
9294;SDS011;4686;44.496;11.324;2023-02-11T09:07:16;33.10;;;24.47;;
9294;SDS011;4686;44.496;11.324;2023-02-11T09:09:44;27.50;;;20.53;;
9294;SDS011;4686;44.496;11.324;2023-02-11T09:12:11;35.00;;;23.50;;
9294;SDS011;4686;44.496;11.324;2023-02-11T09:14:38;30.33;;;21.03;;
9294;SDS011;4686;44.496;11.324;2023-02-11T09:17:07;39.33;;;25.50;;
9294;SDS011;4686;44.496;11.324;2023-02-11T09:19:34;40.97;;;26.87;;
9294;SDS011;4686;44.496;11.324;2023-02-11T09:22:02;33.50;;;22.67;;
9294;SDS011;4686;44.496;11.324;2023-02-11T09:24:30;38.50;;;25.13;;
9294;SDS011;4686;44.496;11.324;2023-02-11T09:26:57;33.33;;;23.37;;
9294;SDS011;4686;44.496;11.324;2023-02-11T09:29:25;37.40;;;24.07;;
9294;SDS011;4686;44.496;11.324;2023-02-11T09:31:52;43.27;;;26.00;;
9294;SDS011;4686;44.496;11.324;2023-02-11T09:34:19;32.35;;;19.90;;
9294;SDS011;4686;44.496;11.324;2023-02-11T09:36:46;38.03;;;26.53;;
9294;SDS011;4686;44.496;11.324;2023-02-11T09:39:16;36.87;;;24.57;;
9294;SDS011;4686;44.496;11.324;2023-02-11T09:41:54;38.50;;;24.83;;
9294;SDS011;4686;44.496;11.324;2023-02-11T09:44:26;39.03;;;26.43;;
9294;SDS011;4686;44.496;11.324;2023-02-11T09:46:54;43.93;;;32.40;;
9294;SDS011;4686;44.496;11.324;2023-02-11T09:49:24;51.13;;;26.70;;
9294;SDS011;4686;44.496;11.324;2023-02-11T09:51:55;35.13;;;23.80;;
9294;SDS011;4686;44.496;11.324;2023-02-11T09:54:27;44.33;;;32.43;;
9294;SDS011;4686;44.496;11.324;2023-02-11T09:56:55;43.70;;;25.20;;
9294;SDS011;4686;44.496;11.324;2023-02-11T09:59:22;40.90;;;25.50;;
9294;SDS011;4686;44.496;11.324;2023-02-11T10:01:52;38.37;;;26.13;;
9294;SDS011;4686;44.496;11.324;2023-02-11T10:04:24;39.53;;;26.37;;
9294;SDS011;4686;44.496;11.324;2023-02-11T10:06:56;37.37;;;25.50;;
9294;SDS011;4686;44.496;11.324;2023-02-11T10:09:42;39.20;;;25.80;;
9294;SDS011;4686;44.496;11.324;2023-02-11T10:15:02;38.33;;;26.00;;
9294;SDS011;4686;44.496;11.324;2023-02-11T10:17:34;38.47;;;26.17;;
9294;SDS011;4686;44.496;11.324;2023-02-11T10:20:13;36.57;;;24.80;;
9294;SDS011;4686;44.496;11.324;2023-02-11T10:22:44;36.90;;;25.57;;
9294;SDS011;4686;44.496;11.324;2023-02-11T10:25:18;39.60;;;24.77;;
9294;SDS011;4686;44.496;11.324;2023-02-11T10:27:46;35.77;;;25.73;;
9294;SDS011;4686;44.496;11.324;2023-02-11T10:30:20;39.70;;;26.40;;
9294;SDS011;4686;44.496;11.324;2023-02-11T10:32:49;35.23;;;26.87;;
9294;SDS011;4686;44.496;11.324;2023-02-11T10:35:19;42.73;;;25.70;;
9294;SDS011;4686;44.496;11.324;2023-02-11T10:37:47;37.20;;;26.67;;
9294;SDS011;4686;44.496;11.324;2023-02-11T10:40:15;46.87;;;33.00;;
9294;SDS011;4686;44.496;11.324;2023-02-11T10:42:45;35.20;;;22.73;;
9294;SDS011;4686;44.496;11.324;2023-02-11T10:45:15;38.03;;;25.00;;
9294;SDS011;4686;44.496;11.324;2023-02-11T10:47:43;34.67;;;24.20;;
9294;SDS011;4686;44.496;11.324;2023-02-11T10:50:17;35.23;;;25.83;;
9294;SDS011;4686;44.496;11.324;2023-02-11T10:52:45;37.77;;;24.57;;
9294;SDS011;4686;44.496;11.324;2023-02-11T10:55:14;36.10;;;23.50;;
9294;SDS011;4686;44.496;11.324;2023-02-11T10:57:42;36.10;;;22.57;;
9294;SDS011;4686;44.496;11.324;2023-02-11T11:00:22;33.00;;;21.30;;
9294;SDS011;4686;44.496;11.324;2023-02-11T11:02:53;33.47;;;22.57;;
9294;SDS011;4686;44.496;11.324;2023-02-11T11:05:24;32.63;;;23.07;;
9294;SDS011;4686;44.496;11.324;2023-02-11T11:07:53;30.90;;;23.00;;
9294;SDS011;4686;44.496;11.324;2023-02-11T11:10:26;31.23;;;22.50;;
9294;SDS011;4686;44.496;11.324;2023-02-11T11:12:55;39.13;;;26.90;;
9294;SDS011;4686;44.496;11.324;2023-02-11T11:15:25;39.80;;;24.77;;
9294;SDS011;4686;44.496;11.324;2023-02-11T11:18:08;35.63;;;23.70;;
9294;SDS011;4686;44.496;11.324;2023-02-11T11:20:36;39.57;;;28.40;;
9294;SDS011;4686;44.496;11.324;2023-02-11T11:23:08;41.13;;;26.83;;
9294;SDS011;4686;44.496;11.324;2023-02-11T11:25:37;41.00;;;27.50;;
9294;SDS011;4686;44.496;11.324;2023-02-11T11:28:05;38.70;;;26.63;;
9294;SDS011;4686;44.496;11.324;2023-02-11T11:30:40;43.73;;;25.77;;
9294;SDS011;4686;44.496;11.324;2023-02-11T11:33:13;41.47;;;26.37;;
9294;SDS011;4686;44.496;11.324;2023-02-11T11:35:42;36.73;;;25.40;;
9294;SDS011;4686;44.496;11.324;2023-02-11T11:38:21;39.10;;;27.57;;
9294;SDS011;4686;44.496;11.324;2023-02-11T11:40:49;34.80;;;24.90;;
9294;SDS011;4686;44.496;11.324;2023-02-11T11:43:36;38.93;;;27.17;;
9294;SDS011;4686;44.496;11.324;2023-02-11T11:46:07;37.33;;;26.00;;
9294;SDS011;4686;44.496;11.324;2023-02-11T11:48:42;40.20;;;27.43;;
9294;SDS011;4686;44.496;11.324;2023-02-11T11:51:16;35.27;;;25.60;;
9294;SDS011;4686;44.496;11.324;2023-02-11T11:53:44;36.83;;;25.67;;
9294;SDS011;4686;44.496;11.324;2023-02-11T11:56:15;36.57;;;23.90;;
9294;SDS011;4686;44.496;11.324;2023-02-11T11:58:42;39.47;;;26.80;;
9294;SDS011;4686;44.496;11.324;2023-02-11T12:01:16;37.23;;;26.57;;
9294;SDS011;4686;44.496;11.324;2023-02-11T12:04:08;45.80;;;31.20;;
9294;SDS011;4686;44.496;11.324;2023-02-11T12:06:39;53.37;;;37.97;;
9294;SDS011;4686;44.496;11.324;2023-02-11T12:09:17;41.90;;;28.70;;
9294;SDS011;4686;44.496;11.324;2023-02-11T12:11:54;36.20;;;24.97;;
9294;SDS011;4686;44.496;11.324;2023-02-11T12:14:37;34.33;;;24.37;;
9294;SDS011;4686;44.496;11.324;2023-02-11T12:17:10;44.97;;;25.87;;
9294;SDS011;4686;44.496;11.324;2023-02-11T12:19:51;34.40;;;24.63;;
9294;SDS011;4686;44.496;11.324;2023-02-11T12:22:28;39.90;;;24.97;;
9294;SDS011;4686;44.496;11.324;2023-02-11T12:25:02;35.60;;;26.13;;
9294;SDS011;4686;44.496;11.324;2023-02-11T12:27:36;36.57;;;25.10;;
9294;SDS011;4686;44.496;11.324;2023-02-11T12:30:07;36.67;;;23.73;;
9294;SDS011;4686;44.496;11.324;2023-02-11T12:32:42;47.80;;;30.10;;
9294;SDS011;4686;44.496;11.324;2023-02-11T12:35:17;36.87;;;24.20;;
9294;SDS011;4686;44.496;11.324;2023-02-11T12:37:52;37.13;;;24.23;;
9294;SDS011;4686;44.496;11.324;2023-02-11T12:40:30;34.17;;;23.47;;
9294;SDS011;4686;44.496;11.324;2023-02-11T12:43:02;41.70;;;25.17;;
9294;SDS011;4686;44.496;11.324;2023-02-11T12:45:45;35.73;;;22.90;;
9294;SDS011;4686;44.496;11.324;2023-02-11T12:48:19;37.90;;;23.17;;
9294;SDS011;4686;44.496;11.324;2023-02-11T12:50:52;37.07;;;24.73;;
9294;SDS011;4686;44.496;11.324;2023-02-11T12:56:11;31.80;;;23.60;;
9294;SDS011;4686;44.496;11.324;2023-02-11T12:58:40;30.73;;;22.40;;
9294;SDS011;4686;44.496;11.324;2023-02-11T13:01:09;40.90;;;25.80;;
9294;SDS011;4686;44.496;11.324;2023-02-11T13:03:40;36.50;;;24.93;;
9294;SDS011;4686;44.496;11.324;2023-02-11T13:06:10;36.67;;;24.00;;
9294;SDS011;4686;44.496;11.324;2023-02-11T13:08:39;65.83;;;48.47;;
9294;SDS011;4686;44.496;11.324;2023-02-11T13:11:10;31.63;;;24.53;;
9294;SDS011;4686;44.496;11.324;2023-02-11T13:13:45;32.17;;;23.33;;
9294;SDS011;4686;44.496;11.324;2023-02-11T13:16:16;33.17;;;23.30;;
9294;SDS011;4686;44.496;11.324;2023-02-11T13:18:48;33.67;;;24.33;;
9294;SDS011;4686;44.496;11.324;2023-02-11T13:21:24;34.23;;;23.40;;
9294;SDS011;4686;44.496;11.324;2023-02-11T13:23:58;36.67;;;24.57;;
9294;SDS011;4686;44.496;11.324;2023-02-11T13:26:28;33.90;;;23.40;;
9294;SDS011;4686;44.496;11.324;2023-02-11T13:29:01;32.97;;;23.50;;
9294;SDS011;4686;44.496;11.324;2023-02-11T13:31:33;31.47;;;22.27;;
9294;SDS011;4686;44.496;11.324;2023-02-11T13:34:02;30.60;;;22.70;;
9294;SDS011;4686;44.496;11.324;2023-02-11T13:36:50;34.27;;;23.57;;
9294;SDS011;4686;44.496;11.324;2023-02-11T13:39:22;36.00;;;28.37;;
9294;SDS011;4686;44.496;11.324;2023-02-11T13:41:50;35.57;;;24.77;;
9294;SDS011;4686;44.496;11.324;2023-02-11T13:44:29;41.80;;;24.10;;
9294;SDS011;4686;44.496;11.324;2023-02-11T13:47:03;39.03;;;23.60;;
9294;SDS011;4686;44.496;11.324;2023-02-11T13:49:33;30.93;;;24.23;;
9294;SDS011;4686;44.496;11.324;2023-02-11T13:52:02;36.30;;;24.27;;
9294;SDS011;4686;44.496;11.324;2023-02-11T13:54:32;32.90;;;23.10;;
9294;SDS011;4686;44.496;11.324;2023-02-11T14:00:05;33.93;;;23.37;;
9294;SDS011;4686;44.496;11.324;2023-02-11T14:02:34;38.90;;;27.60;;
9294;SDS011;4686;44.496;11.324;2023-02-11T14:05:25;36.23;;;25.33;;
9294;SDS011;4686;44.496;11.324;2023-02-11T14:08:18;38.60;;;26.37;;
9294;SDS011;4686;44.496;11.324;2023-02-11T14:11:04;40.40;;;25.80;;
9294;SDS011;4686;44.496;11.324;2023-02-11T14:16:19;35.63;;;23.90;;
9294;SDS011;4686;44.496;11.324;2023-02-11T14:18:59;33.77;;;24.30;;
9294;SDS011;4686;44.496;11.324;2023-02-11T14:21:32;37.50;;;24.33;;
9294;SDS011;4686;44.496;11.324;2023-02-11T14:26:55;34.80;;;24.80;;
9294;SDS011;4686;44.496;11.324;2023-02-11T14:29:25;34.13;;;24.87;;
9294;SDS011;4686;44.496;11.324;2023-02-11T14:31:56;30.70;;;22.73;;
9294;SDS011;4686;44.496;11.324;2023-02-11T14:34:30;35.07;;;25.20;;
9294;SDS011;4686;44.496;11.324;2023-02-11T14:37:05;33.60;;;24.57;;
9294;SDS011;4686;44.496;11.324;2023-02-11T14:39:40;36.30;;;24.83;;
9294;SDS011;4686;44.496;11.324;2023-02-11T14:42:14;39.67;;;25.20;;
9294;SDS011;4686;44.496;11.324;2023-02-11T14:44:43;34.23;;;25.97;;
9294;SDS011;4686;44.496;11.324;2023-02-11T14:47:10;36.17;;;25.20;;
9294;SDS011;4686;44.496;11.324;2023-02-11T14:49:39;37.30;;;24.90;;
9294;SDS011;4686;44.496;11.324;2023-02-11T14:52:14;40.73;;;26.17;;
9294;SDS011;4686;44.496;11.324;2023-02-11T14:54:42;32.23;;;23.63;;
9294;SDS011;4686;44.496;11.324;2023-02-11T14:57:11;37.10;;;24.17;;
9294;SDS011;4686;44.496;11.324;2023-02-11T14:59:39;40.10;;;25.70;;
9294;SDS011;4686;44.496;11.324;2023-02-11T15:02:17;34.03;;;24.57;;
9294;SDS011;4686;44.496;11.324;2023-02-11T15:04:47;37.23;;;24.60;;
9294;SDS011;4686;44.496;11.324;2023-02-11T15:07:15;38.00;;;25.50;;
9294;SDS011;4686;44.496;11.324;2023-02-11T15:09:43;31.80;;;24.13;;
9294;SDS011;4686;44.496;11.324;2023-02-11T15:12:14;37.07;;;25.90;;